Alamogordo White Sands Regional Airport
KALM : now visible

Airfield :











YOU CAN JOIN US ON...

 
LOGIN :

Register | Disclaimer

   EN    FR    IT 

 









Legend :    VFR   Marginal VFR   IFR   Intensive IFR   Very Intensive IFR
Visi :
Ceiling :
>= 8 km
>= 3000ft
5 to 8 km
1000 to 3000 ft
1500m to 5 km
500 to 1000 ft
800 to 1500m
200 to 500 ft
< 800m
< 200 ft
Symbols :   Thunderstorms  Fog  Heavy snow  Heavy precipitations  Wind > 20 kt







- Airport Elevation : 4200 ft
- IATA code : ALM


KALM - Alamogordo White Sands Regional

CURRENT METAR :
  • 181035Z AUTO 16013KT 10SM CLR 25/12 A3005 RMK AO2

EXPIRED METARs :
  • 181015Z AUTO 17011G15KT 10SM CLR 26/11 A3005 RMK AO2
  • 180955Z AUTO 17009KT 10SM CLR 25/11 A3005 RMK AO2
  • 180935Z AUTO 18010KT 10SM CLR 25/11 A3006 RMK AO2
  • 180915Z AUTO 17010KT 10SM CLR 26/11 A3006 RMK AO2
  • 180855Z AUTO 17011KT 10SM CLR 25/12 A3006 RMK AO2
  • 180835Z AUTO 18010G15KT 10SM CLR 25/12 A3006 RMK AO2
  • 180815Z AUTO 17009KT 10SM CLR 25/11 A3006 RMK AO2
  • 180755Z AUTO 16010G16KT 10SM CLR 25/12 A3006 RMK AO2

TAF N/A
KZAB FIR / North America



MET'MAP, your aeronautical weather chart ! - Copyright ORBIFLY December 2007 - Disclaimer

ORBIFLY MET'MAP TEAM :

Programming & Development : Alexandra Zaïnal
Concept & Development : Baudouin d'Aumeries
Co-Development & Prog : Marc-Olivier Méhu
Technical & hardware support : Manuel Goepfert

Contact : metmap@orbifly.com




SOURCES & CREDITS :

   NOAA       Earth
Advisory